Time;durP1;ratioP1;P1;durP2;ratioP2;P2;SDS_P1;SDS_P2;PMS_P1;PMS_P2;Temp;Humidity;BMP_temperature;BMP_pressure;BME280_temperature;BME280_humidity;BME280_pressure;Samples;Min_cycle;Max_cycle;Signal;HPM_P1;HPM_P2
2021/12/02 00:01:07;;;;;;;1.75;0.40;;;26.10;99.90;;;;;;5052319;28;20645;-79
2021/12/02 00:03:40;;;;;;;2.20;0.75;;;26.20;99.90;;;;;;5052330;28;20228;-82
2021/12/02 00:06:12;;;;;;;1.55;0.50;;;26.40;99.90;;;;;;5052535;28;20185;-80
2021/12/02 00:08:43;;;;;;;1.08;0.40;;;26.60;99.90;;;;;;5051929;28;20610;-78
2021/12/02 00:11:15;;;;;;;1.17;0.50;;;26.50;99.90;;;;;;5052614;28;20210;-79
2021/12/02 00:13:53;;;;;;;4.88;0.82;;;26.60;99.90;;;;;;5049441;28;20189;-78
2021/12/02 00:16:29;;;;;;;3.58;0.60;;;26.60;99.90;;;;;;5050515;28;20181;-80
2021/12/02 00:21:53;;;;;;;0.95;0.47;;;26.50;99.90;;;;;;5052374;28;20200;-81
2021/12/02 00:24:24;;;;;;;2.30;0.60;;;26.50;99.90;;;;;;5052186;28;20189;-81
2021/12/02 00:26:56;;;;;;;3.60;0.90;;;26.50;99.90;;;;;;5052075;28;20719;-82
2021/12/02 00:29:27;;;;;;;2.45;0.60;;;26.60;99.90;;;;;;5051852;28;20197;-81
2021/12/02 00:31:58;;;;;;;2.08;0.60;;;26.50;99.90;;;;;;5051778;28;20205;-81
2021/12/02 00:34:33;;;;;;;2.63;0.60;;;26.50;99.90;;;;;;5051001;28;20199;-80
2021/12/02 00:37:07;;;;;;;3.55;0.80;;;26.50;99.90;;;;;;5052029;28;20590;-80
2021/12/02 00:39:39;;;;;;;1.73;0.50;;;26.50;99.90;;;;;;5051745;28;20193;-81
2021/12/02 00:42:11;;;;;;;2.35;0.60;;;26.70;99.90;;;;;;5048917;28;20196;-81
2021/12/02 00:44:42;;;;;;;0.90;0.40;;;26.80;99.90;;;;;;5052326;28;20193;-79
2021/12/02 00:47:13;;;;;;;3.13;0.50;;;26.90;99.90;;;;;;5051920;28;20213;-81
2021/12/02 00:49:49;;;;;;;1.88;0.50;;;26.90;99.90;;;;;;5051885;28;20194;-80
2021/12/02 00:52:20;;;;;;;2.25;0.50;;;26.80;99.90;;;;;;5052380;28;20216;-80
2021/12/02 00:54:51;;;;;;;3.63;0.60;;;26.80;99.90;;;;;;5052057;28;20192;-80
2021/12/02 00:57:22;;;;;;;4.00;2.10;;;26.90;99.90;;;;;;5052154;28;20186;-80
2021/12/02 00:59:54;;;;;;;2.40;0.70;;;27.00;99.90;;;;;;5052236;28;20576;-80
2021/12/02 01:02:25;;;;;;;1.60;0.60;;;27.00;99.90;;;;;;5052098;28;20196;-79
2021/12/02 01:04:59;;;;;;;2.05;0.40;;;27.00;99.90;;;;;;5046505;28;20225;-80
2021/12/02 01:07:30;;;;;;;3.88;0.80;;;27.00;99.90;;;;;;5048770;28;20565;-81
2021/12/02 01:10:02;;;;;;;2.67;0.60;;;26.80;99.90;;;;;;5052299;28;20224;-80
2021/12/02 01:12:32;;;;;;;1.00;0.43;;;26.70;99.90;;;;;;5052350;28;20220;-82
2021/12/02 01:15:03;;;;;;;3.58;0.40;;;26.70;99.90;;;;;;5055484;28;20190;-81
2021/12/02 01:17:34;;;;;;;2.33;0.45;;;26.80;99.90;;;;;;5055809;28;20201;-81
2021/12/02 01:20:07;;;;;;;1.92;0.50;;;26.90;99.90;;;;;;5055655;28;20204;-82
2021/12/02 01:22:40;;;;;;;3.17;0.55;;;26.90;99.90;;;;;;5056098;28;20622;-81
2021/12/02 01:25:15;;;;;;;2.67;0.50;;;27.10;99.90;;;;;;5055087;28;20194;-81
2021/12/02 01:27:51;;;;;;;1.40;0.50;;;27.10;99.90;;;;;;5055625;28;20271;-82
2021/12/02 01:30:22;;;;;;;2.88;0.60;;;26.90;99.90;;;;;;5055713;28;20564;-81
2021/12/02 01:32:53;;;;;;;2.85;0.68;;;26.90;99.90;;;;;;5055665;28;20221;-81
2021/12/02 01:35:27;;;;;;;3.35;0.55;;;26.90;99.90;;;;;;5055556;28;20201;-80
2021/12/02 01:37:58;;;;;;;2.33;0.60;;;27.00;99.90;;;;;;5055416;28;20193;-80
2021/12/02 01:40:32;;;;;;;2.83;0.60;;;27.10;99.90;;;;;;5054718;28;20198;-80
2021/12/02 01:43:03;;;;;;;1.55;0.60;;;27.30;99.90;;;;;;5054963;28;20186;-81
2021/12/02 01:45:33;;;;;;;1.80;0.70;;;27.20;99.90;;;;;;5055407;28;20240;-80
2021/12/02 01:48:08;;;;;;;3.30;0.70;;;27.10;99.90;;;;;;5054021;28;20284;-81
2021/12/02 01:50:43;;;;;;;1.85;0.50;;;27.00;99.90;;;;;;5055577;28;20211;-80
2021/12/02 01:53:18;;;;;;;5.25;0.50;;;27.00;99.90;;;;;;5055902;28;20300;-81
2021/12/02 01:55:56;;;;;;;1.88;0.57;;;27.10;99.90;;;;;;5055675;28;20229;-81
2021/12/02 01:58:30;;;;;;;1.85;0.98;;;27.20;99.90;;;;;;5055155;28;20190;-82
2021/12/02 02:01:03;;;;;;;4.60;0.63;;;27.00;99.90;;;;;;5055117;28;20550;-82
2021/12/02 02:03:34;;;;;;;1.83;0.40;;;26.70;99.90;;;;;;5047798;28;20564;-81
2021/12/02 02:06:11;;;;;;;3.75;0.60;;;26.70;99.90;;;;;;5054848;28;20193;-82
2021/12/02 02:08:48;;;;;;;2.70;0.60;;;26.50;99.90;;;;;;5054666;28;20189;-80
2021/12/02 02:11:19;;;;;;;1.02;0.60;;;26.50;99.90;;;;;;5054771;28;20193;-81
2021/12/02 02:13:49;;;;;;;1.15;0.68;;;26.40;99.90;;;;;;5054803;28;20731;-80
2021/12/02 02:16:20;;;;;;;1.23;0.60;;;26.50;99.90;;;;;;5054598;28;20185;-81
2021/12/02 02:18:51;;;;;;;1.90;0.63;;;26.50;99.90;;;;;;5055077;28;20182;-81
2021/12/02 02:21:24;;;;;;;4.07;0.60;;;26.60;99.90;;;;;;5054203;28;20689;-81
2021/12/02 02:23:59;;;;;;;1.75;0.50;;;26.70;99.90;;;;;;5054452;28;20193;-80
2021/12/02 02:26:33;;;;;;;3.25;0.52;;;26.50;99.90;;;;;;5054109;28;20237;-80
2021/12/02 02:29:05;;;;;;;2.30;0.60;;;26.50;99.90;;;;;;5054565;28;20270;-82
2021/12/02 02:31:36;;;;;;;4.40;0.50;;;26.40;99.90;;;;;;5054428;28;20630;-81
2021/12/02 02:34:07;;;;;;;0.85;0.40;;;26.30;99.90;;;;;;5054641;28;20213;-81
2021/12/02 02:36:50;;;;;;;3.33;0.70;;;26.40;99.90;;;;;;5046365;28;20243;-81
2021/12/02 02:39:21;;;;;;;1.70;0.40;;;26.40;99.90;;;;;;5053830;28;20190;-80
2021/12/02 02:41:57;;;;;;;5.15;0.60;;;26.40;99.90;;;;;;5054381;28;20243;-84
2021/12/02 02:44:28;;;;;;;2.58;0.50;;;26.50;99.90;;;;;;5054085;28;20189;-81
2021/12/02 02:46:59;;;;;;;2.40;0.52;;;26.40;99.90;;;;;;5053771;28;20592;-80
2021/12/02 02:49:30;;;;;;;3.25;0.60;;;26.50;99.90;;;;;;5053724;28;20193;-80
2021/12/02 02:52:04;;;;;;;1.92;0.50;;;26.50;99.90;;;;;;5054004;28;20186;-80
2021/12/02 02:54:35;;;;;;;2.83;0.68;;;26.40;99.90;;;;;;5053814;28;20229;-81
2021/12/02 02:57:08;;;;;;;1.75;0.70;;;26.20;99.90;;;;;;5054017;28;20731;-79
2021/12/02 02:59:55;;;;;;;2.65;0.70;;;26.10;99.90;;;;;;5053857;28;20646;-81
2021/12/02 03:02:30;;;;;;;0.63;0.40;;;26.20;99.90;;;;;;5053729;28;20201;-81
2021/12/02 03:05:08;;;;;;;3.10;0.68;;;26.10;99.90;;;;;;5052977;28;20566;-79
2021/12/02 03:07:45;;;;;;;1.58;0.50;;;26.20;99.90;;;;;;5052531;28;20659;-79
2021/12/02 03:10:20;;;;;;;3.72;0.98;;;26.10;99.90;;;;;;5053932;28;20283;-80
2021/12/02 03:13:00;;;;;;;2.25;0.70;;;26.10;99.90;;;;;;5053525;28;20275;-79
2021/12/02 03:18:32;;;;;;;1.02;0.50;;;26.10;99.90;;;;;;5008759;28;20312;-79
2021/12/02 03:21:03;;;;;;;2.03;0.50;;;26.10;99.90;;;;;;5041414;28;20194;-79
2021/12/02 03:23:51;;;;;;;2.85;0.50;;;26.10;99.90;;;;;;5053505;28;20197;-82
2021/12/02 03:26:21;;;;;;;4.03;0.55;;;26.10;99.90;;;;;;5048114;28;20654;-79
2021/12/02 03:28:53;;;;;;;2.83;0.70;;;26.10;99.90;;;;;;5053308;28;20194;-80
2021/12/02 03:31:24;;;;;;;2.30;0.63;;;26.00;99.90;;;;;;5053547;28;20605;-81
2021/12/02 03:33:55;;;;;;;3.22;0.80;;;26.00;99.90;;;;;;5053196;28;20213;-84
2021/12/02 03:36:29;;;;;;;1.27;0.40;;;26.00;99.90;;;;;;5052505;28;20201;-80
2021/12/02 03:39:02;;;;;;;1.63;0.40;;;25.90;99.90;;;;;;5053349;28;20241;-80
2021/12/02 03:41:33;;;;;;;0.68;0.40;;;25.80;99.90;;;;;;5053437;28;20193;-80
2021/12/02 03:44:03;;;;;;;3.75;0.60;;;25.90;99.90;;;;;;5053216;28;20244;-81
2021/12/02 03:46:34;;;;;;;2.25;0.50;;;26.00;99.90;;;;;;5052672;28;20224;-81
2021/12/02 03:49:06;;;;;;;1.73;0.57;;;26.00;99.90;;;;;;5052976;28;20553;-82
2021/12/02 03:51:36;;;;;;;0.98;0.50;;;25.90;99.90;;;;;;5053140;28;20198;-80
2021/12/02 03:54:09;;;;;;;3.80;1.20;;;25.80;99.90;;;;;;5053195;28;20681;-79
2021/12/02 03:56:40;;;;;;;2.92;0.90;;;25.80;99.90;;;;;;5053355;28;20629;-80
2021/12/02 03:59:10;;;;;;;2.38;0.63;;;25.80;99.90;;;;;;5053011;28;20193;-80
2021/12/02 04:01:41;;;;;;;2.17;0.60;;;25.90;99.90;;;;;;5053074;28;20209;-81
2021/12/02 04:04:12;;;;;;;1.33;0.40;;;25.70;99.90;;;;;;5052741;28;20209;-82
2021/12/02 04:06:42;;;;;;;1.15;0.55;;;25.70;99.90;;;;;;5052976;28;20243;-78
2021/12/02 04:09:18;;;;;;;4.38;0.60;;;25.60;99.90;;;;;;5052997;28;20223;-80
2021/12/02 04:11:55;;;;;;;1.70;0.45;;;25.60;99.90;;;;;;5053002;28;20185;-79
2021/12/02 04:14:28;;;;;;;2.53;0.50;;;25.80;99.90;;;;;;5052666;28;20302;-80
2021/12/02 04:17:01;;;;;;;1.60;0.40;;;25.70;99.90;;;;;;5052910;28;20222;-81
2021/12/02 04:19:32;;;;;;;0.88;0.30;;;25.80;99.90;;;;;;5052586;28;20198;-81
2021/12/02 04:22:02;;;;;;;1.75;0.50;;;25.70;99.90;;;;;;5052746;28;20564;-81
2021/12/02 04:24:35;;;;;;;4.25;0.60;;;25.60;99.90;;;;;;5052287;28;20202;-80
2021/12/02 04:27:06;;;;;;;2.03;0.40;;;25.60;99.90;;;;;;5052598;28;20278;-82
2021/12/02 04:29:36;;;;;;;1.88;0.63;;;25.60;99.90;;;;;;5052754;28;20185;-80
2021/12/02 04:32:08;;;;;;;0.95;0.40;;;25.50;99.90;;;;;;5049525;28;20251;-80
2021/12/02 04:34:38;;;;;;;2.13;0.50;;;25.60;99.90;;;;;;5049190;28;20240;-79
2021/12/02 04:37:09;;;;;;;2.40;0.52;;;25.60;99.90;;;;;;5044933;28;20608;-79
2021/12/02 04:39:41;;;;;;;2.72;0.50;;;25.60;99.90;;;;;;5052507;28;20186;-80
2021/12/02 04:42:12;;;;;;;1.85;0.50;;;25.60;99.90;;;;;;5049024;28;20201;-81
2021/12/02 04:44:43;;;;;;;0.73;0.50;;;25.50;99.90;;;;;;5052707;28;20247;-79
2021/12/02 04:47:13;;;;;;;1.25;0.50;;;25.50;99.90;;;;;;5053729;28;20794;-80
2021/12/02 04:49:44;;;;;;;1.30;0.43;;;25.50;99.90;;;;;;5056111;28;20185;-80
2021/12/02 04:52:14;;;;;;;1.95;0.50;;;25.60;99.90;;;;;;5056472;28;20193;-79
2021/12/02 04:54:47;;;;;;;2.95;0.50;;;25.50;99.90;;;;;;5056213;28;20225;-81
2021/12/02 04:57:18;;;;;;;5.57;0.60;;;25.50;99.90;;;;;;5056406;28;20655;-80
2021/12/02 04:59:48;;;;;;;1.52;0.50;;;25.50;99.90;;;;;;5056585;28;20190;-81
2021/12/02 05:02:19;;;;;;;1.48;0.50;;;25.70;99.90;;;;;;5056099;28;20634;-80
2021/12/02 05:04:49;;;;;;;1.60;0.52;;;25.70;99.90;;;;;;5056458;28;20185;-81
2021/12/02 05:07:20;;;;;;;4.72;0.60;;;25.60;99.90;;;;;;5056211;28;20244;-81
2021/12/02 05:09:53;;;;;;;4.18;0.70;;;25.60;99.90;;;;;;5046824;28;20248;-81
2021/12/02 05:12:23;;;;;;;3.10;0.60;;;25.60;99.90;;;;;;5054384;28;20307;-81
2021/12/02 05:14:54;;;;;;;3.83;0.75;;;25.50;99.90;;;;;;5056087;28;20213;-80
2021/12/02 05:17:25;;;;;;;2.60;0.55;;;25.50;99.90;;;;;;5055720;28;20225;-81
2021/12/02 05:19:55;;;;;;;2.15;0.60;;;25.50;99.90;;;;;;5056009;28;20618;-82
2021/12/02 05:22:26;;;;;;;2.35;0.70;;;25.60;99.90;;;;;;5055994;28;20650;-80
2021/12/02 05:24:59;;;;;;;2.63;0.80;;;25.60;99.90;;;;;;5048145;28;20190;-82
2021/12/02 05:27:29;;;;;;;2.92;0.55;;;25.50;99.90;;;;;;5055775;28;20316;-81
2021/12/02 05:30:00;;;;;;;1.42;0.45;;;25.50;99.90;;;;;;5048175;28;20181;-81
2021/12/02 05:32:31;;;;;;;2.38;0.50;;;25.30;99.90;;;;;;5055862;28;20197;-81
2021/12/02 05:35:02;;;;;;;3.00;0.50;;;25.40;99.90;;;;;;5047881;28;20213;-80
2021/12/02 05:37:33;;;;;;;3.28;0.68;;;25.50;99.90;;;;;;5055897;28;20621;-81
2021/12/02 05:40:06;;;;;;;1.85;0.50;;;25.50;99.90;;;;;;5055543;28;20185;-81
2021/12/02 05:42:37;;;;;;;1.88;0.60;;;25.60;99.90;;;;;;5055760;28;20193;-80
2021/12/02 05:45:08;;;;;;;0.50;0.40;;;25.60;99.90;;;;;;5055581;28;20206;-81
2021/12/02 05:47:39;;;;;;;3.13;0.52;;;25.40;99.90;;;;;;5054994;28;20693;-83
2021/12/02 05:50:10;;;;;;;1.30;0.30;;;25.40;99.90;;;;;;5055559;28;20255;-82
2021/12/02 05:52:41;;;;;;;2.05;0.30;;;25.20;99.90;;;;;;5055521;28;20185;-84
2021/12/02 05:55:14;;;;;;;0.50;0.30;;;25.30;99.90;;;;;;5055286;28;20213;-82
2021/12/02 05:57:44;;;;;;;1.15;0.40;;;25.30;99.90;;;;;;5055226;28;20196;-82
2021/12/02 06:00:16;;;;;;;4.57;0.60;;;25.30;99.90;;;;;;5054411;28;20193;-82
2021/12/02 06:02:46;;;;;;;4.57;0.40;;;25.20;99.90;;;;;;5055437;28;20185;-82
2021/12/02 06:05:19;;;;;;;3.20;0.55;;;25.20;99.90;;;;;;5055282;28;20271;-85
2021/12/02 06:07:52;;;;;;;0.60;0.30;;;25.10;99.90;;;;;;5055495;28;20182;-80
2021/12/02 06:10:25;;;;;;;0.60;0.47;;;25.10;99.90;;;;;;5055240;28;20240;-81
2021/12/02 06:12:55;;;;;;;1.67;0.40;;;25.10;99.90;;;;;;5055382;28;20189;-81
2021/12/02 06:15:27;;;;;;;3.72;0.50;;;25.20;99.90;;;;;;5054621;28;20217;-81
2021/12/02 06:17:57;;;;;;;0.70;0.40;;;25.10;99.90;;;;;;5050452;28;20194;-80
2021/12/02 06:20:30;;;;;;;2.03;0.65;;;25.10;99.90;;;;;;5054419;28;20190;-81
2021/12/02 06:23:03;;;;;;;0.75;0.40;;;25.00;99.90;;;;;;5054940;28;20194;-81
2021/12/02 06:31:08;;;;;;;2.15;0.60;;;24.90;99.90;;;;;;5052176;28;20375;-81
2021/12/02 06:33:39;;;;;;;3.45;0.40;;;24.90;99.90;;;;;;5054323;28;20213;-81
2021/12/02 06:36:10;;;;;;;3.05;0.50;;;24.80;99.90;;;;;;5054295;28;20192;-81
2021/12/02 06:38:42;;;;;;;2.00;0.60;;;24.80;99.90;;;;;;5053390;28;20194;-80
2021/12/02 06:41:18;;;;;;;0.63;0.40;;;24.70;99.90;;;;;;5051656;28;20670;-80
2021/12/02 06:43:49;;;;;;;3.65;0.50;;;24.70;99.90;;;;;;5052915;28;20197;-81
2021/12/02 06:46:19;;;;;;;1.95;0.40;;;24.70;99.90;;;;;;5053561;28;20347;-82
2021/12/02 06:48:50;;;;;;;3.88;0.57;;;24.80;99.90;;;;;;5053948;28;20536;-80
2021/12/02 06:51:21;;;;;;;1.88;0.40;;;24.60;99.90;;;;;;5046721;28;20196;-80
2021/12/02 06:53:52;;;;;;;1.38;0.50;;;24.50;99.90;;;;;;5054090;28;20214;-82
2021/12/02 06:56:25;;;;;;;2.95;0.55;;;24.50;99.90;;;;;;5053954;28;20185;-81
2021/12/02 06:58:56;;;;;;;1.20;0.52;;;24.50;99.90;;;;;;5053834;28;20205;-80
2021/12/02 07:01:27;;;;;;;0.80;0.40;;;24.40;99.90;;;;;;5053841;28;20190;-79
2021/12/02 07:03:58;;;;;;;1.15;0.30;;;24.40;99.90;;;;;;5054074;28;20198;-81
2021/12/02 07:06:28;;;;;;;1.80;0.50;;;24.30;99.90;;;;;;5053743;28;20189;-80
2021/12/02 07:08:59;;;;;;;2.15;0.50;;;24.40;99.90;;;;;;5054059;28;20652;-80
2021/12/02 07:11:32;;;;;;;3.13;0.50;;;24.30;99.90;;;;;;5053574;28;20194;-81
2021/12/02 07:14:05;;;;;;;1.05;0.40;;;24.30;99.90;;;;;;5053509;28;20211;-83
2021/12/02 07:16:36;;;;;;;3.10;0.60;;;24.40;99.90;;;;;;5049333;28;20205;-82
2021/12/02 07:19:07;;;;;;;2.47;0.47;;;24.20;99.90;;;;;;5053546;28;20190;-81
2021/12/02 07:21:39;;;;;;;1.83;0.50;;;24.20;99.90;;;;;;5053361;28;20201;-81
2021/12/02 07:24:13;;;;;;;1.83;0.65;;;24.20;99.90;;;;;;5053519;28;20193;-81
2021/12/02 07:26:46;;;;;;;1.08;0.50;;;24.10;99.90;;;;;;5052784;28;20774;-80
2021/12/02 07:29:18;;;;;;;3.03;0.50;;;24.00;99.90;;;;;;5053267;28;20193;-80
2021/12/02 07:31:49;;;;;;;1.92;0.43;;;24.00;99.90;;;;;;5049898;28;20201;-81
2021/12/02 07:34:23;;;;;;;1.02;0.40;;;23.80;99.90;;;;;;5053197;28;20209;-79
2021/12/02 07:36:56;;;;;;;0.68;0.40;;;23.60;99.90;;;;;;5052979;28;20196;-82
2021/12/02 07:39:28;;;;;;;1.52;0.50;;;23.40;99.90;;;;;;5053187;28;20701;-81
2021/12/02 07:42:01;;;;;;;2.45;0.40;;;23.30;99.90;;;;;;5052727;28;20204;-81
2021/12/02 07:44:32;;;;;;;1.08;0.50;;;23.10;99.90;;;;;;5052657;28;20593;-81
2021/12/02 07:47:03;;;;;;;1.30;0.40;;;23.00;99.90;;;;;;5052375;28;20225;-81
2021/12/02 07:49:34;;;;;;;2.08;0.60;;;23.00;99.90;;;;;;5052136;28;20580;-81
2021/12/02 07:52:05;;;;;;;1.23;0.50;;;22.90;99.90;;;;;;5051787;28;20239;-80
2021/12/02 07:54:37;;;;;;;0.93;0.60;;;22.80;99.90;;;;;;5052904;28;20700;-81
2021/12/02 07:57:13;;;;;;;2.13;0.60;;;22.80;99.90;;;;;;5052339;28;20182;-79
2021/12/02 07:59:44;;;;;;;4.40;0.70;;;22.70;99.90;;;;;;5051293;28;20200;-80
2021/12/02 08:02:18;;;;;;;1.70;0.70;;;22.80;99.90;;;;;;5051900;28;20198;-80
2021/12/02 08:04:48;;;;;;;2.42;0.70;;;22.90;99.90;;;;;;5051672;28;20202;-79
2021/12/02 08:07:19;;;;;;;2.40;0.60;;;22.90;99.90;;;;;;5049634;28;20189;-82
2021/12/02 08:09:49;;;;;;;1.92;0.60;;;23.00;99.90;;;;;;5049626;28;20235;-81
2021/12/02 08:12:22;;;;;;;1.92;0.47;;;23.00;99.90;;;;;;5051604;28;20251;-79
2021/12/02 08:14:53;;;;;;;3.65;0.70;;;22.90;99.90;;;;;;5050758;28;20214;-79
2021/12/02 08:17:34;;;;;;;2.38;0.50;;;22.90;99.90;;;;;;5052482;28;20194;-80
2021/12/02 08:20:05;;;;;;;3.65;0.60;;;22.80;99.90;;;;;;5045355;28;20197;-80
2021/12/02 08:22:36;;;;;;;2.45;0.63;;;22.70;99.90;;;;;;5051589;28;20185;-79
2021/12/02 08:25:07;;;;;;;2.30;0.85;;;22.60;99.90;;;;;;5051446;28;20224;-79
2021/12/02 08:27:40;;;;;;;3.38;0.52;;;22.60;99.90;;;;;;5051876;28;20185;-78
2021/12/02 08:30:13;;;;;;;1.88;0.60;;;22.60;99.90;;;;;;5051550;28;20638;-80
2021/12/02 08:32:45;;;;;;;1.52;0.43;;;22.50;99.90;;;;;;5047316;28;20220;-78
2021/12/02 08:35:18;;;;;;;2.38;0.52;;;22.40;99.90;;;;;;5051730;28;20611;-79
2021/12/02 08:37:50;;;;;;;1.27;0.60;;;22.40;99.90;;;;;;5051923;28;20200;-79
2021/12/02 08:40:23;;;;;;;3.03;0.68;;;22.40;99.90;;;;;;5044979;28;20633;-80
2021/12/02 08:42:55;;;;;;;1.05;0.50;;;22.30;99.90;;;;;;5051534;28;20208;-82
2021/12/02 08:45:26;;;;;;;1.95;0.60;;;22.30;99.90;;;;;;5044350;28;20613;-81
2021/12/02 08:47:57;;;;;;;2.20;0.50;;;22.30;99.90;;;;;;5049427;28;20280;-78
2021/12/02 08:50:28;;;;;;;2.38;0.60;;;22.20;99.90;;;;;;5045236;28;20564;-82
2021/12/02 08:52:59;;;;;;;3.40;0.60;;;22.10;99.90;;;;;;5049825;28;20205;-79
2021/12/02 08:55:33;;;;;;;1.83;0.50;;;22.10;99.90;;;;;;5046075;28;20209;-81
2021/12/02 08:58:11;;;;;;;1.05;0.40;;;22.10;99.90;;;;;;5046069;28;20233;-79
2021/12/02 09:00:43;;;;;;;2.17;0.60;;;22.10;99.90;;;;;;5046730;28;20637;-81
2021/12/02 09:03:15;;;;;;;1.95;0.40;;;22.00;99.90;;;;;;5047303;28;20201;-80
2021/12/02 09:05:46;;;;;;;3.83;0.60;;;22.00;99.90;;;;;;5047013;28;20185;-81
2021/12/02 09:08:19;;;;;;;0.98;0.40;;;22.00;99.90;;;;;;5047488;28;20197;-81
2021/12/02 09:10:50;;;;;;;3.97;0.60;;;21.90;99.90;;;;;;5048071;28;20194;-80
2021/12/02 09:13:23;;;;;;;1.23;0.60;;;21.90;99.90;;;;;;5046965;28;20214;-82
2021/12/02 09:15:54;;;;;;;1.35;0.68;;;21.90;99.90;;;;;;5050495;28;20614;-84
2021/12/02 09:18:24;;;;;;;1.73;0.70;;;21.90;99.90;;;;;;5047716;28;20197;-80
2021/12/02 09:20:55;;;;;;;2.05;0.50;;;21.80;99.90;;;;;;5046120;28;20240;-81
2021/12/02 09:23:26;;;;;;;2.30;0.57;;;21.80;99.90;;;;;;5047125;28;20186;-81
2021/12/02 09:25:57;;;;;;;3.97;0.68;;;21.80;99.90;;;;;;5047984;28;20651;-81
2021/12/02 09:28:29;;;;;;;1.27;0.50;;;21.80;99.90;;;;;;5049440;28;20193;-82
2021/12/02 09:31:00;;;;;;;2.38;0.57;;;21.70;99.90;;;;;;5046654;28;20201;-83
2021/12/02 09:33:31;;;;;;;3.53;0.80;;;21.70;99.90;;;;;;5045968;28;20201;-83
2021/12/02 09:36:02;;;;;;;1.60;0.55;;;21.70;99.90;;;;;;5050347;28;20304;-82
2021/12/02 09:38:33;;;;;;;3.90;0.90;;;21.70;99.90;;;;;;5053462;28;20196;-81
2021/12/02 09:41:06;;;;;;;1.70;0.50;;;21.70;99.90;;;;;;5054167;28;20186;-82
2021/12/02 09:43:42;;;;;;;4.03;0.75;;;21.70;99.90;;;;;;5054161;28;20194;-79
2021/12/02 09:46:16;;;;;;;2.53;0.60;;;21.60;99.90;;;;;;5055200;28;20228;-81
2021/12/02 09:48:48;;;;;;;2.35;0.70;;;21.60;99.90;;;;;;5055051;28;20193;-81
2021/12/02 09:51:21;;;;;;;2.58;0.65;;;21.60;99.90;;;;;;5054770;28;20186;-83
2021/12/02 09:53:56;;;;;;;4.85;0.77;;;21.60;99.90;;;;;;5053999;28;20193;-82
2021/12/02 09:59:49;;;;;;;1.38;0.68;;;21.60;99.90;;;;;;5050647;28;20197;-84
2021/12/02 10:02:21;;;;;;;2.75;0.95;;;21.60;99.90;;;;;;5053466;28;20190;-81
2021/12/02 10:04:57;;;;;;;3.75;1.42;;;21.50;99.90;;;;;;5054519;28;20276;-82
2021/12/02 10:07:33;;;;;;;5.00;0.80;;;21.50;99.90;;;;;;5054210;28;20193;-82
2021/12/02 10:10:09;;;;;;;2.28;0.70;;;21.50;99.90;;;;;;5053354;28;20638;-84
2021/12/02 10:12:48;;;;;;;2.65;0.73;;;21.50;99.90;;;;;;5046438;28;20272;-84
2021/12/02 10:15:21;;;;;;;3.67;0.73;;;21.50;99.90;;;;;;5053297;28;20213;-83
2021/12/02 10:17:53;;;;;;;3.35;0.70;;;21.50;99.90;;;;;;5054245;28;20551;-81
2021/12/02 10:20:29;;;;;;;3.08;0.70;;;21.50;99.90;;;;;;5054556;28;20182;-81
2021/12/02 10:23:13;;;;;;;1.98;0.55;;;21.50;99.90;;;;;;5053785;28;20239;-80
2021/12/02 10:25:47;;;;;;;2.05;0.70;;;21.50;99.90;;;;;;5046311;28;20256;-80
2021/12/02 10:28:19;;;;;;;1.25;0.57;;;21.50;99.90;;;;;;5054342;28;20181;-81
2021/12/02 10:30:55;;;;;;;4.68;0.70;;;21.50;99.90;;;;;;5046399;28;20703;-81
2021/12/02 10:33:39;;;;;;;9.65;6.30;;;21.50;99.90;;;;;;5053959;28;20189;-81
2021/12/02 10:36:11;;;;;;;8.35;4.90;;;21.40;99.90;;;;;;5048494;28;20206;-78
2021/12/02 10:38:43;;;;;;;2.47;0.70;;;21.40;99.90;;;;;;5053642;28;20190;-85
2021/12/02 10:41:17;;;;;;;1.70;0.68;;;21.40;99.90;;;;;;5053929;28;20192;-80
2021/12/02 10:44:07;;;;;;;2.70;0.70;;;21.40;99.90;;;;;;5052756;28;20193;-81
2021/12/02 10:47:00;;;;;;;2.03;0.80;;;21.40;99.90;;;;;;5053399;28;20222;-82
2021/12/02 10:49:38;;;;;;;3.90;0.90;;;21.40;99.90;;;;;;5046315;28;20213;-79
2021/12/02 10:52:14;;;;;;;3.08;0.70;;;21.40;99.90;;;;;;5047684;28;20185;-79
2021/12/02 10:54:49;;;;;;;3.88;0.70;;;21.40;99.90;;;;;;5052163;28;20224;-81
2021/12/02 10:57:23;;;;;;;3.22;0.77;;;21.40;99.90;;;;;;5053362;28;20189;-79
2021/12/02 10:59:55;;;;;;;4.95;0.88;;;21.30;99.90;;;;;;5052733;28;20182;-80
2021/12/02 11:02:29;;;;;;;3.92;0.77;;;21.30;99.90;;;;;;5053503;28;20556;-81
2021/12/02 11:05:06;;;;;;;2.53;0.80;;;21.30;99.90;;;;;;5052799;28;20203;-79
2021/12/02 11:07:41;;;;;;;3.45;0.70;;;21.30;99.90;;;;;;5053660;28;20189;-79
2021/12/02 11:10:17;;;;;;;1.80;0.65;;;21.30;99.90;;;;;;5058209;28;20251;-81
2021/12/02 11:12:50;;;;;;;4.15;0.80;;;21.30;99.90;;;;;;5055424;28;20636;-82
2021/12/02 11:15:25;;;;;;;2.30;0.63;;;21.30;99.90;;;;;;5052824;28;20210;-81
2021/12/02 11:18:28;;;;;;;2.80;0.70;;;21.30;99.90;;;;;;5052906;28;20288;-79
2021/12/02 11:20:59;;;;;;;2.33;0.52;;;21.30;99.90;;;;;;5055001;28;20220;-82
2021/12/02 11:23:42;;;;;;;2.28;0.80;;;21.30;99.90;;;;;;5053697;28;20185;-82
2021/12/02 11:26:20;;;;;;;2.67;0.70;;;21.30;99.90;;;;;;5055979;28;20742;-81
2021/12/02 11:28:52;;;;;;;4.13;0.80;;;21.20;99.90;;;;;;5052094;28;20200;-79
2021/12/02 11:31:23;;;;;;;2.55;0.70;;;21.20;99.90;;;;;;5052722;28;20559;-81
2021/12/02 11:33:56;;;;;;;2.25;0.75;;;21.20;99.90;;;;;;5050149;28;20275;-81
2021/12/02 11:36:28;;;;;;;1.90;0.90;;;21.20;99.90;;;;;;5048164;28;20213;-81
2021/12/02 11:39:01;;;;;;;2.42;0.70;;;21.20;99.90;;;;;;5052449;28;20186;-80
2021/12/02 11:41:35;;;;;;;5.07;1.08;;;21.20;99.90;;;;;;5050656;28;20204;-79
2021/12/02 11:44:07;;;;;;;4.38;0.90;;;21.20;99.90;;;;;;5052605;28;20218;-81
2021/12/02 11:46:39;;;;;;;3.03;0.80;;;21.20;99.90;;;;;;5051756;28;20588;-78
2021/12/02 11:49:12;;;;;;;2.95;0.68;;;21.20;99.90;;;;;;5052163;28;20203;-78
2021/12/02 11:51:43;;;;;;;3.92;0.80;;;21.10;99.90;;;;;;5048209;28;20201;-80
2021/12/02 11:54:14;;;;;;;2.65;0.70;;;21.10;99.90;;;;;;5052267;28;20653;-80
2021/12/02 11:56:45;;;;;;;2.35;0.90;;;21.10;99.90;;;;;;5051222;28;20595;-77
2021/12/02 11:59:17;;;;;;;1.45;0.70;;;21.10;99.90;;;;;;5052332;28;20182;-76
2021/12/02 12:01:48;;;;;;;3.22;0.80;;;21.10;99.90;;;;;;5051969;28;20224;-78
2021/12/02 12:04:21;;;;;;;3.40;0.70;;;21.10;99.90;;;;;;5051663;28;20208;-77
2021/12/02 12:07:09;;;;;;;1.58;0.60;;;21.10;99.90;;;;;;5052110;28;20194;-78
2021/12/02 12:09:40;;;;;;;1.95;0.68;;;21.10;99.90;;;;;;5050811;28;20194;-77
2021/12/02 12:12:14;;;;;;;1.35;0.60;;;21.10;99.90;;;;;;5051317;28;20703;-77
2021/12/02 12:14:48;;;;;;;4.85;1.00;;;21.10;99.90;;;;;;5048806;28;20198;-78
2021/12/02 12:17:20;;;;;;;2.60;0.77;;;21.10;99.90;;;;;;5051566;28;20210;-78
2021/12/02 12:19:54;;;;;;;2.00;0.60;;;21.00;99.90;;;;;;5051732;28;20194;-77
2021/12/02 12:22:32;;;;;;;3.17;0.80;;;21.00;99.90;;;;;;5051985;28;20197;-80
2021/12/02 12:25:06;;;;;;;3.03;0.82;;;21.00;99.90;;;;;;5051976;28;20189;-81
2021/12/02 12:27:44;;;;;;;3.33;0.80;;;21.00;99.90;;;;;;5051396;28;20228;-78
2021/12/02 12:30:26;;;;;;;2.95;0.77;;;21.00;99.90;;;;;;5051868;28;20255;-77
2021/12/02 12:33:06;;;;;;;3.25;0.80;;;21.00;99.90;;;;;;5052084;28;20268;-77
2021/12/02 12:35:57;;;;;;;1.70;0.70;;;21.00;99.90;;;;;;5051758;28;20563;-78
2021/12/02 12:38:30;;;;;;;3.30;0.70;;;21.00;99.90;;;;;;5051084;28;20205;-77
2021/12/02 12:41:03;;;;;;;2.22;0.90;;;20.90;99.90;;;;;;5052010;28;20218;-77
2021/12/02 12:43:41;;;;;;;1.38;0.60;;;20.90;99.90;;;;;;5050072;28;20190;-77
2021/12/02 12:46:21;;;;;;;3.80;0.50;;;20.90;99.90;;;;;;5046258;28;20691;-77
2021/12/02 12:48:52;;;;;;;2.60;0.60;;;20.90;99.90;;;;;;5051940;28;20559;-78
2021/12/02 12:51:37;;;;;;;2.67;0.60;;;20.90;99.90;;;;;;5051707;28;20213;-79
2021/12/02 12:54:20;;;;;;;2.70;0.70;;;20.90;99.90;;;;;;5046582;28;20268;-79
2021/12/02 12:56:51;;;;;;;3.63;0.70;;;20.90;99.90;;;;;;5043693;28;20296;-80
2021/12/02 12:59:22;;;;;;;3.15;0.63;;;20.90;99.90;;;;;;5051421;28;20646;-80
2021/12/02 13:02:02;;;;;;;1.90;0.40;;;20.90;99.90;;;;;;5045257;28;20189;-79
2021/12/02 13:04:51;;;;;;;1.45;0.60;;;20.90;99.90;;;;;;5051170;28;20272;-80
2021/12/02 13:07:23;;;;;;;3.28;1.08;;;20.90;99.90;;;;;;5052608;28;20193;-81
2021/12/02 13:10:02;;;;;;;4.75;0.70;;;20.90;99.90;;;;;;5055450;28;20198;-81
2021/12/02 13:12:51;;;;;;;4.05;0.70;;;20.80;99.90;;;;;;5054953;28;20633;-81
2021/12/02 13:15:25;;;;;;;2.88;0.70;;;20.80;99.90;;;;;;5054312;28;20188;-80
2021/12/02 13:17:57;;;;;;;1.77;0.57;;;20.80;99.90;;;;;;5055422;28;20642;-80
2021/12/02 13:20:41;;;;;;;2.30;0.70;;;20.80;99.90;;;;;;5055243;28;20648;-78
2021/12/02 13:23:40;;;;;;;4.32;0.88;;;20.80;99.90;;;;;;5054476;28;20185;-80
2021/12/02 13:26:21;;;;;;;1.95;0.60;;;20.80;99.90;;;;;;5043296;28;20233;-80
2021/12/02 13:28:54;;;;;;;2.58;0.80;;;20.70;99.90;;;;;;5054602;28;20205;-81
2021/12/02 13:31:26;;;;;;;1.67;0.70;;;20.70;99.90;;;;;;5055677;28;20263;-81
2021/12/02 13:33:58;;;;;;;1.77;0.70;;;20.70;99.90;;;;;;5051013;28;20189;-81